Time;durP1;ratioP1;P1;durP2;ratioP2;P2;SDS_P1;SDS_P2;PMS_P1;PMS_P2;Temp;Humidity;BMP_temperature;BMP_pressure;BME280_temperature;BME280_humidity;BME280_pressure;Samples;Min_cycle;Max_cycle;Signal;HPM_P1;HPM_P2
2021/06/18 00:00:01;;;;;;;;;;;;;;;;;;5071825;28;20486;-66
2021/06/18 00:02:28;;;;;;;;;;;;;;;;;;5072010;28;19925;-66
2021/06/18 00:04:55;;;;;;;;;;;;;;;;;;5071741;28;19926;-66
2021/06/18 00:07:22;;;;;;;;;;;;;;;;;;5071470;28;20022;-65
2021/06/18 00:09:49;;;;;;;;;;;;;;;;;;5071075;28;19924;-66
2021/06/18 00:12:16;;;;;;;;;;;;;;;;;;5071745;28;19924;-66
2021/06/18 00:14:43;;;;;;;;;;;;;;;;;;5071670;28;19947;-67
2021/06/18 00:17:10;;;;;;;;;;;;;;;;;;5071470;28;19925;-69
2021/06/18 00:19:37;;;;;;;;;;;;;;;;;;5070920;28;19925;-66
2021/06/18 00:22:04;;;;;;;;;;;;;;;;;;5071426;28;20081;-67
2021/06/18 00:24:31;;;;;;;;;;;;;;;;;;5073214;28;19925;-67
2021/06/18 00:26:58;;;;;;;;;;;;;;;;;;5075175;28;19930;-67
2021/06/18 00:29:25;;;;;;;;;;;;;;;;;;5074750;28;19932;-66
2021/06/18 00:31:51;;;;;;;;;;;;;;;;;;5074742;28;19929;-67
2021/06/18 00:34:18;;;;;;;;;;;;;;;;;;5074664;28;19931;-65
2021/06/18 00:36:45;;;;;;;;;;;;;;;;;;5074689;28;19924;-66
2021/06/18 00:39:12;;;;;;;;;;;;;;;;;;5074269;28;20029;-64
2021/06/18 00:41:39;;;;;;;;;;;;;;;;;;5074702;28;20011;-67
2021/06/18 00:44:06;;;;;;;;;;;;;;;;;;5074829;28;20316;-68
2021/06/18 00:46:33;;;;;;;;;;;;;;;;;;5074676;28;20311;-66
2021/06/18 00:49:00;;;;;;;;;;;;;;;;;;5074331;28;20289;-65
2021/06/18 00:51:27;;;;;;;;;;;;;;;;;;5074500;28;20281;-66
2021/06/18 00:53:54;;;;;;;;;;;;;;;;;;5074558;28;19970;-67
2021/06/18 00:56:21;;;;;;;;;;;;;;;;;;5074965;28;19946;-66
2021/06/18 00:58:48;;;;;;;;;;;;;;;;;;5075360;28;20400;-67
2021/06/18 01:01:15;;;;;;;;;;;;;;;;;;5075794;28;19947;-66
2021/06/18 01:03:42;;;;;;;;;;;;;;;;;;5074189;28;19928;-66
2021/06/18 01:06:09;;;;;;;;;;;;;;;;;;5074385;28;20026;-67
2021/06/18 01:08:38;;;;;;;;;;;;;;;;;;5074291;28;20010;-67
2021/06/18 01:11:05;;;;;;;;;;;;;;;;;;5073949;28;19924;-66
2021/06/18 01:13:32;;;;;;;;;;;;;;;;;;5074192;28;19928;-67
2021/06/18 01:15:59;;;;;;;;;;;;;;;;;;5073961;28;20181;-67
2021/06/18 01:18:26;;;;;;;;;;;;;;;;;;5073971;28;20310;-67
2021/06/18 01:20:53;;;;;;;;;;;;;;;;;;5073498;28;19939;-67
2021/06/18 01:23:20;;;;;;;;;;;;;;;;;;5074026;28;20015;-66
2021/06/18 01:25:47;;;;;;;;;;;;;;;;;;5073929;28;20307;-67
2021/06/18 01:28:14;;;;;;;;;;;;;;;;;;5073855;28;19968;-66
2021/06/18 01:30:41;;;;;;;;;;;;;;;;;;5073907;28;20451;-66
2021/06/18 01:33:08;;;;;;;;;;;;;;;;;;5073606;28;20023;-66
2021/06/18 01:35:35;;;;;;;;;;;;;;;;;;5073203;28;19924;-66
2021/06/18 01:38:02;;;;;;;;;;;;;;;;;;5073872;28;20358;-66
2021/06/18 01:40:29;;;;;;;;;;;;;;;;;;5073566;28;19931;-66
2021/06/18 01:42:56;;;;;;;;;;;;;;;;;;5073475;28;20360;-64
2021/06/18 01:45:26;;;;;;;;;;;;;;;;;;5073899;28;19924;-66
2021/06/18 01:47:53;;;;;;;;;;;;;;;;;;5073596;28;20289;-65
2021/06/18 01:50:20;;;;;;;;;;;;;;;;;;5073362;28;19925;-65
2021/06/18 01:52:47;;;;;;;;;;;;;;;;;;5073414;28;19932;-65
2021/06/18 01:55:14;;;;;;;;;;;;;;;;;;5073499;28;20307;-66
2021/06/18 01:57:41;;;;;;;;;;;;;;;;;;5073355;28;20019;-67
2021/06/18 02:00:08;;;;;;;;;;;;;;;;;;5072747;28;19924;-66
2021/06/18 02:02:34;;;;;;;;;;;;;;;;;;5073475;28;19924;-67
2021/06/18 02:05:01;;;;;;;;;;;;;;;;;;5073553;28;19986;-70
2021/06/18 02:07:28;;;;;;;;;;;;;;;;;;5072935;28;19924;-66
2021/06/18 02:09:55;;;;;;;;;;;;;;;;;;5072904;28;19931;-66
2021/06/18 02:12:22;;;;;;;;;;;;;;;;;;5073048;28;19928;-66
2021/06/18 02:14:49;;;;;;;;;;;;;;;;;;5072862;28;20418;-66
2021/06/18 02:17:16;;;;;;;;;;;;;;;;;;5073089;28;19924;-66
2021/06/18 02:19:43;;;;;;;;;;;;;;;;;;5072593;28;19925;-66
2021/06/18 02:22:10;;;;;;;;;;;;;;;;;;5072719;28;19925;-67
2021/06/18 02:24:37;;;;;;;;;;;;;;;;;;5072711;28;20004;-65
2021/06/18 02:27:04;;;;;;;;;;;;;;;;;;5072586;28;19924;-65
2021/06/18 02:29:31;;;;;;;;;;;;;;;;;;5072369;28;20167;-67
2021/06/18 02:31:58;;;;;;;;;;;;;;;;;;5072652;28;20384;-66
2021/06/18 02:34:25;;;;;;;;;;;;;;;;;;5072579;28;19949;-67
2021/06/18 02:36:52;;;;;;;;;;;;;;;;;;5072580;28;19928;-66
2021/06/18 02:39:19;;;;;;;;;;;;;;;;;;5072276;28;20020;-67
2021/06/18 02:41:46;;;;;;;;;;;;;;;;;;5072503;28;20438;-67
2021/06/18 02:44:13;;;;;;;;;;;;;;;;;;5072321;28;19931;-67
2021/06/18 02:46:40;;;;;;;;;;;;;;;;;;5072424;28;19924;-67
2021/06/18 02:49:07;;;;;;;;;;;;;;;;;;5072166;28;19974;-64
2021/06/18 02:51:34;;;;;;;;;;;;;;;;;;5072337;28;19924;-65
2021/06/18 02:54:01;;;;;;;;;;;;;;;;;;5072239;28;19931;-67
2021/06/18 02:56:28;;;;;;;;;;;;;;;;;;5071995;28;20410;-66
2021/06/18 02:58:55;;;;;;;;;;;;;;;;;;5072469;28;19925;-65
2021/06/18 03:01:22;;;;;;;;;;;;;;;;;;5072024;28;20300;-66
2021/06/18 03:03:49;;;;;;;;;;;;;;;;;;5072343;28;19932;-67
2021/06/18 03:06:16;;;;;;;;;;;;;;;;;;5072436;28;19933;-66
2021/06/18 03:08:43;;;;;;;;;;;;;;;;;;5074341;28;19929;-66
2021/06/18 03:11:10;;;;;;;;;;;;;;;;;;5072183;28;19924;-66
2021/06/18 03:13:37;;;;;;;;;;;;;;;;;;5072234;28;20015;-70
2021/06/18 03:16:04;;;;;;;;;;;;;;;;;;5072159;28;20019;-66
2021/06/18 03:18:31;;;;;;;;;;;;;;;;;;5072096;28;20310;-65
2021/06/18 03:20:58;;;;;;;;;;;;;;;;;;5071957;28;19925;-66
2021/06/18 03:23:25;;;;;;;;;;;;;;;;;;5071859;28;19931;-65
2021/06/18 03:25:52;;;;;;;;;;;;;;;;;;5071874;28;19931;-66
2021/06/18 03:28:19;;;;;;;;;;;;;;;;;;5072272;28;19931;-65
2021/06/18 03:30:46;;;;;;;;;;;;;;;;;;5073210;28;19924;-66
2021/06/18 03:33:13;;;;;;;;;;;;;;;;;;5076471;28;19924;-66
2021/06/18 03:35:40;;;;;;;;;;;;;;;;;;5072350;28;20292;-66
2021/06/18 03:38:07;;;;;;;;;;;;;;;;;;5071757;28;19932;-66
2021/06/18 03:40:34;;;;;;;;;;;;;;;;;;5071680;28;19932;-66
2021/06/18 03:43:01;;;;;;;;;;;;;;;;;;5072026;28;19924;-66
2021/06/18 03:45:28;;;;;;;;;;;;;;;;;;5071643;28;20307;-66
2021/06/18 03:47:55;;;;;;;;;;;;;;;;;;5071699;28;20290;-66
2021/06/18 03:50:22;;;;;;;;;;;;;;;;;;5071324;28;19929;-64
2021/06/18 03:52:49;;;;;;;;;;;;;;;;;;5071397;28;19924;-66
2021/06/18 03:55:16;;;;;;;;;;;;;;;;;;5071986;28;20025;-66
2021/06/18 03:57:43;;;;;;;;;;;;;;;;;;5071532;28;19928;-66
2021/06/18 04:00:09;;;;;;;;;;;;;;;;;;5075094;28;19968;-68
2021/06/18 04:02:36;;;;;;;;;;;;;;;;;;5075417;28;20385;-66
2021/06/18 04:05:03;;;;;;;;;;;;;;;;;;5075339;28;19928;-66
2021/06/18 04:07:30;;;;;;;;;;;;;;;;;;5075243;28;19924;-67
2021/06/18 04:09:57;;;;;;;;;;;;;;;;;;5075171;28;19924;-67
2021/06/18 04:12:24;;;;;;;;;;;;;;;;;;5075359;28;20182;-66
2021/06/18 04:14:51;;;;;;;;;;;;;;;;;;5075877;28;19931;-66
2021/06/18 04:17:18;;;;;;;;;;;;;;;;;;5075300;28;19931;-67
2021/06/18 04:19:45;;;;;;;;;;;;;;;;;;5074490;28;19975;-66
2021/06/18 04:22:12;;;;;;;;;;;;;;;;;;5075252;28;20023;-69
2021/06/18 04:24:39;;;;;;;;;;;;;;;;;;5075087;28;19925;-66
2021/06/18 04:27:06;;;;;;;;;;;;;;;;;;5075944;28;20303;-66
2021/06/18 04:29:33;;;;;;;;;;;;;;;;;;5075446;28;19928;-66
2021/06/18 04:32:00;;;;;;;;;;;;;;;;;;5075209;28;19976;-67
2021/06/18 04:34:27;;;;;;;;;;;;;;;;;;5074969;28;19930;-67
2021/06/18 04:36:54;;;;;;;;;;;;;;;;;;5075057;28;19925;-66
2021/06/18 04:39:21;;;;;;;;;;;;;;;;;;5074600;28;20383;-67
2021/06/18 04:41:48;;;;;;;;;;;;;;;;;;5075416;28;19948;-67
2021/06/18 04:44:15;;;;;;;;;;;;;;;;;;5075269;28;19925;-67
2021/06/18 04:46:41;;;;;;;;;;;;;;;;;;5074995;28;19931;-64
2021/06/18 04:49:08;;;;;;;;;;;;;;;;;;5074670;28;19932;-66
2021/06/18 04:51:35;;;;;;;;;;;;;;;;;;5075107;28;20307;-65
2021/06/18 04:54:02;;;;;;;;;;;;;;;;;;5074763;28;19931;-68
2021/06/18 04:56:29;;;;;;;;;;;;;;;;;;5074811;28;19924;-66
2021/06/18 04:58:56;;;;;;;;;;;;;;;;;;5074241;28;19924;-65
2021/06/18 05:01:23;;;;;;;;;;;;;;;;;;5074760;28;19929;-66
2021/06/18 05:03:50;;;;;;;;;;;;;;;;;;5074387;28;19931;-65
2021/06/18 05:06:19;;;;;;;;;;;;;;;;;;5074977;28;20289;-66
2021/06/18 05:08:46;;;;;;;;;;;;;;;;;;5074310;28;19971;-66
2021/06/18 05:11:13;;;;;;;;;;;;;;;;;;5072832;28;19931;-65
2021/06/18 05:13:40;;;;;;;;;;;;;;;;;;5074540;28;20023;-65
2021/06/18 05:16:07;;;;;;;;;;;;;;;;;;5074153;28;20307;-66
2021/06/18 05:18:34;;;;;;;;;;;;;;;;;;5075907;28;20023;-65
2021/06/18 05:21:01;;;;;;;;;;;;;;;;;;5073817;28;19924;-65
2021/06/18 05:23:28;;;;;;;;;;;;;;;;;;5074004;28;20007;-66
2021/06/18 05:25:55;;;;;;;;;;;;;;;;;;5073855;28;19925;-65
2021/06/18 05:28:22;;;;;;;;;;;;;;;;;;5074049;28;19932;-65
2021/06/18 05:30:48;;;;;;;;;;;;;;;;;;5073568;28;19924;-64
2021/06/18 05:33:15;;;;;;;;;;;;;;;;;;5073663;28;19947;-68
2021/06/18 05:35:44;;;;;;;;;;;;;;;;;;5073376;28;20245;-66
2021/06/18 05:38:11;;;;;;;;;;;;;;;;;;5073475;28;19963;-65
2021/06/18 05:40:41;;;;;;;;;;;;;;;;;;5073187;28;20104;-65
2021/06/18 05:43:08;;;;;;;;;;;;;;;;;;5072993;28;19925;-66
2021/06/18 05:45:36;;;;;;;;;;;;;;;;;;5073680;28;20274;-65
2021/06/18 05:48:03;;;;;;;;;;;;;;;;;;5073236;28;19924;-65
2021/06/18 05:50:30;;;;;;;;;;;;;;;;;;5072966;28;19931;-66
2021/06/18 05:52:57;;;;;;;;;;;;;;;;;;5073235;28;19931;-65
2021/06/18 05:55:27;;;;;;;;;;;;;;;;;;5073608;28;19929;-68
2021/06/18 05:57:54;;;;;;;;;;;;;;;;;;5073027;28;19936;-66
2021/06/18 06:00:21;;;;;;;;;;;;;;;;;;5072601;28;19976;-68
2021/06/18 06:02:48;;;;;;;;;;;;;;;;;;5072643;28;19972;-65
2021/06/18 06:05:15;;;;;;;;;;;;;;;;;;5072696;28;19925;-67
2021/06/18 06:07:42;;;;;;;;;;;;;;;;;;5072708;28;19924;-66
2021/06/18 06:10:08;;;;;;;;;;;;;;;;;;5072224;28;19924;-67
2021/06/18 06:12:35;;;;;;;;;;;;;;;;;;5072528;28;20368;-67
2021/06/18 06:15:02;;;;;;;;;;;;;;;;;;5072885;28;19924;-67
2021/06/18 06:17:29;;;;;;;;;;;;;;;;;;5072302;28;19924;-66
2021/06/18 06:19:56;;;;;;;;;;;;;;;;;;5072301;28;19924;-67
2021/06/18 06:22:23;;;;;;;;;;;;;;;;;;5071908;28;19928;-67
2021/06/18 06:24:50;;;;;;;;;;;;;;;;;;5072442;28;20374;-67
2021/06/18 06:27:18;;;;;;;;;;;;;;;;;;5072665;28;19931;-67
2021/06/18 06:29:47;;;;;;;;;;;;;;;;;;5072436;28;20355;-67
2021/06/18 06:32:14;;;;;;;;;;;;;;;;;;5072531;28;19929;-65
2021/06/18 06:34:41;;;;;;;;;;;;;;;;;;5072190;28;19931;-67
2021/06/18 06:37:08;;;;;;;;;;;;;;;;;;5072025;28;20297;-67
2021/06/18 06:39:35;;;;;;;;;;;;;;;;;;5071619;28;19925;-67
2021/06/18 06:42:04;;;;;;;;;;;;;;;;;;5072215;28;19924;-67
2021/06/18 06:44:31;;;;;;;;;;;;;;;;;;5071892;28;19931;-66
2021/06/18 06:46:58;;;;;;;;;;;;;;;;;;5072217;28;19931;-66
2021/06/18 06:49:25;;;;;;;;;;;;;;;;;;5071622;28;19924;-65
2021/06/18 06:51:52;;;;;;;;;;;;;;;;;;5072094;28;19925;-66
2021/06/18 06:54:19;;;;;;;;;;;;;;;;;;5072098;28;19924;-64
2021/06/18 06:56:46;;;;;;;;;;;;;;;;;;5072024;28;20304;-66
2021/06/18 06:59:13;;;;;;;;;;;;;;;;;;5071945;28;20080;-66
2021/06/18 07:01:41;;;;;;;;;;;;;;;;;;5070985;28;20399;-66
2021/06/18 07:04:08;;;;;;;;;;;;;;;;;;5071911;28;19924;-66
2021/06/18 07:06:36;;;;;;;;;;;;;;;;;;5071495;28;20311;-66
2021/06/18 07:09:03;;;;;;;;;;;;;;;;;;5072019;28;19924;-65
2021/06/18 07:11:30;;;;;;;;;;;;;;;;;;5071470;28;19925;-66
2021/06/18 07:13:57;;;;;;;;;;;;;;;;;;5071734;28;19924;-67
2021/06/18 07:16:24;;;;;;;;;;;;;;;;;;5071599;28;19934;-67
2021/06/18 07:18:51;;;;;;;;;;;;;;;;;;5071256;28;20019;-67
2021/06/18 07:21:18;;;;;;;;;;;;;;;;;;5071205;28;19924;-66
2021/06/18 07:23:45;;;;;;;;;;;;;;;;;;5071449;28;19932;-65
2021/06/18 07:26:12;;;;;;;;;;;;;;;;;;5051700;28;19924;-67
2021/06/18 07:28:39;;;;;;;;;;;;;;;;;;5051632;28;19925;-66
2021/06/18 07:31:06;;;;;;;;;;;;;;;;;;5051561;28;19932;-66
2021/06/18 07:33:35;;;;;;;;;;;;;;;;;;5050571;28;19932;-67
2021/06/18 07:36:02;;;;;;;;;;;;;;;;;;5051624;28;19925;-67
2021/06/18 07:38:29;;;;;;;;;;;;;;;;;;5051555;28;19925;-66
2021/06/18 07:40:56;;;;;;;;;;;;;;;;;;5051088;28;20032;-66
2021/06/18 07:43:23;;;;;;;;;;;;;;;;;;5051376;28;19931;-67
2021/06/18 07:45:50;;;;;;;;;;;;;;;;;;5051088;28;20300;-67
2021/06/18 07:48:17;;;;;;;;;;;;;;;;;;5051146;28;19925;-66
2021/06/18 07:50:44;;;;;;;;;;;;;;;;;;5051041;28;19987;-66
2021/06/18 07:53:11;;;;;;;;;;;;;;;;;;5051224;28;19924;-66
2021/06/18 07:55:38;;;;;;;;;;;;;;;;;;5051066;28;20389;-67
2021/06/18 07:58:05;;;;;;;;;;;;;;;;;;5051126;28;20344;-66
2021/06/18 08:00:32;;;;;;;;;;;;;;;;;;5050722;28;19925;-66
2021/06/18 08:02:59;;;;;;;;;;;;;;;;;;5051170;28;19936;-65
2021/06/18 08:05:26;;;;;;;;;;;;;;;;;;5051045;28;19925;-66
2021/06/18 08:07:53;;;;;;;;;;;;;;;;;;5062655;28;19931;-66
2021/06/18 08:10:22;;;;;;;;;;;;;;;;;;5070691;28;20407;-66
2021/06/18 08:12:49;;;;;;;;;;;;;;;;;;5071256;28;19974;-67
2021/06/18 08:15:16;;;;;;;;;;;;;;;;;;5070879;28;19924;-65
2021/06/18 08:17:43;;;;;;;;;;;;;;;;;;5071235;28;19978;-65
2021/06/18 08:20:10;;;;;;;;;;;;;;;;;;5070631;28;20331;-65
2021/06/18 08:22:37;;;;;;;;;;;;;;;;;;5071076;28;19976;-66
2021/06/18 08:25:04;;;;;;;;;;;;;;;;;;5070606;28;19924;-66
2021/06/18 08:27:31;;;;;;;;;;;;;;;;;;5071025;28;20015;-66
2021/06/18 08:29:58;;;;;;;;;;;;;;;;;;5070386;28;19950;-65
2021/06/18 08:32:25;;;;;;;;;;;;;;;;;;5071211;28;19936;-66
2021/06/18 08:34:51;;;;;;;;;;;;;;;;;;5070850;28;20433;-65
2021/06/18 08:37:18;;;;;;;;;;;;;;;;;;5071087;28;19925;-65
2021/06/18 08:39:45;;;;;;;;;;;;;;;;;;5071043;28;20307;-66
2021/06/18 08:42:12;;;;;;;;;;;;;;;;;;5070561;28;20008;-65
2021/06/18 08:44:39;;;;;;;;;;;;;;;;;;5071550;28;19929;-66
2021/06/18 08:47:06;;;;;;;;;;;;;;;;;;5074112;28;20376;-66
2021/06/18 08:49:34;;;;;;;;;;;;;;;;;;5074098;28;19924;-66
2021/06/18 08:52:02;;;;;;;;;;;;;;;;;;5074508;28;20311;-66
2021/06/18 08:54:42;;;;;;;;;;;;;;;;;;5074074;28;19924;-66
2021/06/18 08:57:09;;;;;;;;;;;;;;;;;;5074404;28;19924;-66
2021/06/18 08:59:36;;;;;;;;;;;;;;;;;;5073761;28;19977;-66
2021/06/18 09:02:03;;;;;;;;;;;;;;;;;;5074323;28;19924;-66
2021/06/18 09:04:30;;;;;;;;;;;;;;;;;;5073888;28;19931;-66
2021/06/18 09:06:57;;;;;;;;;;;;;;;;;;5073923;28;19924;-66
2021/06/18 09:09:24;;;;;;;;;;;;;;;;;;5073491;28;19983;-66
2021/06/18 09:11:51;;;;;;;;;;;;;;;;;;5074003;28;20436;-66
2021/06/18 09:14:18;;;;;;;;;;;;;;;;;;5074029;28;19986;-66
2021/06/18 09:16:45;;;;;;;;;;;;;;;;;;5073978;28;19928;-66
2021/06/18 09:19:12;;;;;;;;;;;;;;;;;;5073711;28;19924;-65
2021/06/18 09:21:39;;;;;;;;;;;;;;;;;;5118880;22;20291;-64
2021/06/18 09:24:06;;;;;;;;;;;;;;;;;;5111538;28;19947;-64
2021/06/18 09:26:33;;;;;;;;;;;;;;;;;;5093920;28;19924;-64
2021/06/18 09:29:00;;;;;;;;;;;;;;;;;;5094095;28;19985;-65
2021/06/18 09:31:27;;;;;;;;;;;;;;;;;;5093549;28;19935;-65
2021/06/18 09:33:54;;;;;;;;;;;;;;;;;;5093814;28;19924;-65
2021/06/18 09:36:21;;;;;;;;;;;;;;;;;;5093754;28;19928;-64
2021/06/18 09:38:49;;;;;;;;;;;;;;;;;;5093492;28;19927;-64
2021/06/18 09:41:16;;;;;;;;;;;;;;;;;;5093660;28;19925;-64
2021/06/18 09:43:44;;;;;;;;;;;;;;;;;;5093324;28;20392;-64
2021/06/18 09:46:11;;;;;;;;;;;;;;;;;;5093975;28;20033;-64
2021/06/18 09:48:38;;;;;;;;;;;;;;;;;;5093396;28;20032;-65
2021/06/18 09:51:05;;;;;;;;;;;;;;;;;;5092936;28;19924;-64
2021/06/18 09:53:32;;;;;;;;;;;;;;;;;;5093752;28;20338;-64
2021/06/18 09:55:59;;;;;;;;;;;;;;;;;;5093062;28;19927;-65
2021/06/18 09:58:26;;;;;;;;;;;;;;;;;;5095870;28;20019;-64
2021/06/18 10:00:53;;;;;;;;;;;;;;;;;;5093271;28;20010;-65
2021/06/18 10:03:20;;;;;;;;;;;;;;;;;;5098313;28;19930;-64
2021/06/18 10:05:47;;;;;;;;;;;;;;;;;;5103272;28;19931;-64
2021/06/18 10:08:14;;;;;;;;;;;;;;;;;;5103205;28;19924;-64
2021/06/18 10:10:41;;;;;;;;;;;;;;;;;;5094215;28;19930;-64
2021/06/18 10:13:08;;;;;;;;;;;;;;;;;;5093191;28;20367;-64
2021/06/18 10:15:38;;;;;;;;;;;;;;;;;;5093020;28;19931;-65
2021/06/18 10:18:10;;;;;;;;;;;;;;;;;;5092551;28;19924;-65
2021/06/18 10:20:37;;;;;;;;;;;;;;;;;;5092557;28;20006;-65
2021/06/18 10:23:06;;;;;;;;;;;;;;;;;;5092318;28;19928;-64
2021/06/18 10:25:33;;;;;;;;;;;;;;;;;;5092692;28;19967;-64
2021/06/18 10:28:00;;;;;;;;;;;;;;;;;;5092717;28;19924;-64
2021/06/18 10:30:27;;;;;;;;;;;;;;;;;;5092478;28;19931;-64
2021/06/18 10:32:54;;;;;;;;;;;;;;;;;;5092479;28;19924;-64
2021/06/18 10:35:21;;;;;;;;;;;;;;;;;;5092794;28;19930;-65
2021/06/18 10:37:48;;;;;;;;;;;;;;;;;;5092742;28;19924;-63
2021/06/18 10:40:15;;;;;;;;;;;;;;;;;;5092233;28;19924;-64
2021/06/18 10:42:42;;;;;;;;;;;;;;;;;;5092434;28;20379;-65
2021/06/18 10:45:09;;;;;;;;;;;;;;;;;;5092141;28;19928;-65
2021/06/18 10:47:41;;;;;;;;;;;;;;;;;;5092858;28;20355;-64
2021/06/18 10:50:08;;;;;;;;;;;;;;;;;;5092075;28;19971;-64
2021/06/18 10:52:35;;;;;;;;;;;;;;;;;;5092420;28;19924;-64
2021/06/18 10:55:02;;;;;;;;;;;;;;;;;;5092184;28;20402;-63
2021/06/18 10:57:29;;;;;;;;;;;;;;;;;;5092250;28;19928;-63
2021/06/18 10:59:56;;;;;;;;;;;;;;;;;;5091679;28;20346;-65
2021/06/18 11:02:24;;;;;;;;;;;;;;;;;;5091864;28;19924;-64
2021/06/18 11:04:52;;;;;;;;;;;;;;;;;;5092030;28;19978;-63
2021/06/18 11:07:19;;;;;;;;;;;;;;;;;;5091966;28;20426;-64
2021/06/18 11:09:46;;;;;;;;;;;;;;;;;;5091590;28;20308;-65
2021/06/18 11:12:13;;;;;;;;;;;;;;;;;;5092040;28;19947;-65
2021/06/18 11:14:40;;;;;;;;;;;;;;;;;;5092154;28;20034;-64
2021/06/18 11:17:07;;;;;;;;;;;;;;;;;;5091998;28;19931;-64
2021/06/18 11:19:35;;;;;;;;;;;;;;;;;;5091335;28;20334;-64
2021/06/18 11:22:02;;;;;;;;;;;;;;;;;;5092108;28;19924;-64
2021/06/18 11:24:29;;;;;;;;;;;;;;;;;;5091746;28;19935;-65
2021/06/18 11:26:56;;;;;;;;;;;;;;;;;;5091628;28;20280;-64
2021/06/18 11:29:23;;;;;;;;;;;;;;;;;;5091672;28;19924;-64
2021/06/18 11:31:50;;;;;;;;;;;;;;;;;;5091924;28;19924;-65
2021/06/18 11:34:17;;;;;;;;;;;;;;;;;;5091874;28;20421;-64
2021/06/18 11:36:45;;;;;;;;;;;;;;;;;;5091972;28;19967;-65
2021/06/18 11:39:13;;;;;;;;;;;;;;;;;;5091399;28;19924;-66
2021/06/18 11:41:40;;;;;;;;;;;;;;;;;;5091825;28;20234;-64
2021/06/18 11:44:07;;;;;;;;;;;;;;;;;;5091991;28;19928;-64
2021/06/18 11:46:34;;;;;;;;;;;;;;;;;;5091859;28;19931;-64
2021/06/18 11:49:01;;;;;;;;;;;;;;;;;;5092273;28;19924;-65
2021/06/18 11:51:28;;;;;;;;;;;;;;;;;;5091479;28;19936;-64
2021/06/18 11:53:55;;;;;;;;;;;;;;;;;;5091712;28;19924;-65
2021/06/18 11:56:22;;;;;;;;;;;;;;;;;;5091668;28;19924;-65
2021/06/18 11:58:51;;;;;;;;;;;;;;;;;;5092026;28;19931;-65
2021/06/18 12:01:18;;;;;;;;;;;;;;;;;;5091731;28;19924;-65
2021/06/18 12:03:45;;;;;;;;;;;;;;;;;;5091673;28;19924;-64
2021/06/18 12:06:12;;;;;;;;;;;;;;;;;;5091681;28;19971;-65
2021/06/18 12:08:39;;;;;;;;;;;;;;;;;;5091525;28;19935;-64
2021/06/18 12:11:06;;;;;;;;;;;;;;;;;;5091573;28;19935;-65
2021/06/18 12:13:32;;;;;;;;;;;;;;;;;;5092560;28;19980;-65
2021/06/18 12:16:00;;;;;;;;;;;;;;;;;;5092311;28;19924;-65
2021/06/18 12:18:27;;;;;;;;;;;;;;;;;;5091684;28;19924;-64
2021/06/18 12:20:54;;;;;;;;;;;;;;;;;;5094025;28;19924;-64
2021/06/18 12:23:21;;;;;;;;;;;;;;;;;;5095300;28;20315;-65
2021/06/18 12:25:50;;;;;;;;;;;;;;;;;;5094940;28;20037;-64
2021/06/18 12:28:18;;;;;;;;;;;;;;;;;;5095247;28;19963;-65
2021/06/18 12:30:45;;;;;;;;;;;;;;;;;;5094470;28;20437;-64
2021/06/18 12:33:12;;;;;;;;;;;;;;;;;;5095018;28;19946;-64
2021/06/18 12:35:39;;;;;;;;;;;;;;;;;;5094476;28;19934;-64
2021/06/18 12:38:06;;;;;;;;;;;;;;;;;;5094838;28;19928;-64
2021/06/18 12:40:33;;;;;;;;;;;;;;;;;;5094285;28;20391;-65
2021/06/18 12:43:00;;;;;;;;;;;;;;;;;;5094684;28;20086;-64
2021/06/18 12:45:29;;;;;;;;;;;;;;;;;;5094736;28;20357;-64
2021/06/18 12:47:56;;;;;;;;;;;;;;;;;;5094398;28;19931;-65
2021/06/18 12:50:23;;;;;;;;;;;;;;;;;;5094259;28;19928;-64
2021/06/18 12:52:50;;;;;;;;;;;;;;;;;;5094615;28;19924;-65
2021/06/18 12:55:17;;;;;;;;;;;;;;;;;;5094549;28;19928;-65
2021/06/18 12:57:44;;;;;;;;;;;;;;;;;;5094521;28;19924;-64
2021/06/18 13:00:11;;;;;;;;;;;;;;;;;;5094736;28;20011;-64
2021/06/18 13:02:38;;;;;;;;;;;;;;;;;;5094473;28;20018;-63
2021/06/18 13:05:05;;;;;;;;;;;;;;;;;;5093924;28;19924;-64
2021/06/18 13:07:32;;;;;;;;;;;;;;;;;;5094153;28;20387;-65
2021/06/18 13:09:59;;;;;;;;;;;;;;;;;;5093844;28;19971;-64
2021/06/18 13:12:26;;;;;;;;;;;;;;;;;;5094618;28;19924;-64
2021/06/18 13:14:58;;;;;;;;;;;;;;;;;;5093917;28;19982;-65
2021/06/18 13:17:25;;;;;;;;;;;;;;;;;;5094109;28;19928;-65
2021/06/18 13:19:53;;;;;;;;;;;;;;;;;;5093909;28;20310;-65
2021/06/18 13:22:21;;;;;;;;;;;;;;;;;;5094112;28;20307;-65
2021/06/18 13:24:49;;;;;;;;;;;;;;;;;;5093814;28;19934;-64
2021/06/18 13:27:16;;;;;;;;;;;;;;;;;;5093918;28;19924;-65
2021/06/18 13:29:43;;;;;;;;;;;;;;;;;;5093586;28;20380;-64
2021/06/18 13:32:10;;;;;;;;;;;;;;;;;;5092880;28;20014;-65
2021/06/18 13:34:37;;;;;;;;;;;;;;;;;;5094000;28;19944;-65
2021/06/18 13:37:04;;;;;;;;;;;;;;;;;;5093701;28;19928;-65
2021/06/18 13:39:31;;;;;;;;;;;;;;;;;;5093440;28;19930;-65
2021/06/18 13:41:58;;;;;;;;;;;;;;;;;;5093599;28;19928;-64
2021/06/18 13:44:25;;;;;;;;;;;;;;;;;;5093489;28;19931;-64
2021/06/18 13:46:52;;;;;;;;;;;;;;;;;;5093593;28;19924;-64
2021/06/18 13:49:19;;;;;;;;;;;;;;;;;;5093160;28;19924;-65
2021/06/18 13:51:46;;;;;;;;;;;;;;;;;;5093609;28;19931;-64
2021/06/18 13:54:13;;;;;;;;;;;;;;;;;;5093236;28;19931;-65
2021/06/18 13:56:40;;;;;;;;;;;;;;;;;;5093353;28;19924;-65
2021/06/18 13:59:07;;;;;;;;;;;;;;;;;;5092990;28;20413;-64
2021/06/18 14:01:34;;;;;;;;;;;;;;;;;;5093470;28;19929;-64
2021/06/18 14:04:01;;;;;;;;;;;;;;;;;;5093269;28;19924;-64
2021/06/18 14:06:28;;;;;;;;;;;;;;;;;;5092976;28;19928;-64
2021/06/18 14:08:55;;;;;;;;;;;;;;;;;;5093151;28;19924;-64
2021/06/18 14:11:24;;;;;;;;;;;;;;;;;;5092447;28;19927;-68
2021/06/18 14:13:52;;;;;;;;;;;;;;;;;;5093173;28;20247;-65
2021/06/18 14:16:19;;;;;;;;;;;;;;;;;;5092896;28;20301;-64
2021/06/18 14:18:46;;;;;;;;;;;;;;;;;;5092978;28;19971;-64
2021/06/18 14:21:13;;;;;;;;;;;;;;;;;;5092442;28;19935;-65
2021/06/18 14:23:40;;;;;;;;;;;;;;;;;;5092614;28;19924;-64
2021/06/18 14:26:07;;;;;;;;;;;;;;;;;;5092769;28;19931;-64
2021/06/18 14:28:34;;;;;;;;;;;;;;;;;;5092579;28;19931;-64
2021/06/18 14:31:01;;;;;;;;;;;;;;;;;;5092766;28;20303;-65
2021/06/18 14:33:28;;;;;;;;;;;;;;;;;;5092512;28;19946;-66
2021/06/18 14:35:55;;;;;;;;;;;;;;;;;;5092803;28;19967;-64
2021/06/18 14:38:22;;;;;;;;;;;;;;;;;;5092551;28;19930;-65
2021/06/18 14:40:52;;;;;;;;;;;;;;;;;;5092420;28;19931;-66
2021/06/18 14:43:19;;;;;;;;;;;;;;;;;;5092019;28;19974;-65
2021/06/18 14:45:47;;;;;;;;;;;;;;;;;;5092284;28;20316;-66
2021/06/18 14:48:14;;;;;;;;;;;;;;;;;;5092245;28;19924;-64
2021/06/18 14:50:41;;;;;;;;;;;;;;;;;;5092042;28;19970;-65
2021/06/18 14:53:08;;;;;;;;;;;;;;;;;;5092097;28;20360;-65
2021/06/18 14:55:35;;;;;;;;;;;;;;;;;;5092471;28;19924;-67
2021/06/18 14:58:04;;;;;;;;;;;;;;;;;;5092434;28;20030;-64
2021/06/18 15:00:31;;;;;;;;;;;;;;;;;;5091935;28;19923;-65
2021/06/18 15:02:58;;;;;;;;;;;;;;;;;;5091982;28;20379;-65
2021/06/18 15:05:24;;;;;;;;;;;;;;;;;;5092074;28;19931;-66
2021/06/18 15:07:51;;;;;;;;;;;;;;;;;;5092283;28;19970;-65
2021/06/18 15:10:18;;;;;;;;;;;;;;;;;;5091707;28;20217;-64
2021/06/18 15:12:45;;;;;;;;;;;;;;;;;;5093261;28;20407;-64
2021/06/18 15:15:12;;;;;;;;;;;;;;;;;;5103030;28;19931;-64
2021/06/18 15:17:39;;;;;;;;;;;;;;;;;;5103697;28;20375;-65
2021/06/18 15:20:06;;;;;;;;;;;;;;;;;;5097909;28;19924;-64
2021/06/18 15:22:33;;;;;;;;;;;;;;;;;;5092064;28;20030;-64
2021/06/18 15:25:04;;;;;;;;;;;;;;;;;;5091595;28;19924;-64
2021/06/18 15:27:31;;;;;;;;;;;;;;;;;;5092220;28;19924;-64
2021/06/18 15:29:58;;;;;;;;;;;;;;;;;;5091377;28;19935;-64
2021/06/18 15:32:25;;;;;;;;;;;;;;;;;;5091815;28;20289;-64
2021/06/18 15:34:52;;;;;;;;;;;;;;;;;;5091189;28;19924;-64
2021/06/18 15:37:19;;;;;;;;;;;;;;;;;;5091586;28;19928;-64
2021/06/18 15:39:46;;;;;;;;;;;;;;;;;;5091350;28;20019;-65
2021/06/18 15:42:13;;;;;;;;;;;;;;;;;;5091261;28;19924;-65
2021/06/18 15:44:40;;;;;;;;;;;;;;;;;;5091442;28;20388;-64
2021/06/18 15:47:07;;;;;;;;;;;;;;;;;;5091248;28;19936;-64
2021/06/18 15:49:34;;;;;;;;;;;;;;;;;;5090947;28;19928;-64
2021/06/18 15:52:01;;;;;;;;;;;;;;;;;;5091574;28;19977;-65
2021/06/18 15:54:32;;;;;;;;;;;;;;;;;;5092039;28;19924;-65
2021/06/18 15:56:59;;;;;;;;;;;;;;;;;;5095433;28;19924;-65
2021/06/18 15:59:25;;;;;;;;;;;;;;;;;;5095249;28;19932;-64
2021/06/18 16:01:52;;;;;;;;;;;;;;;;;;5095218;28;19925;-64
2021/06/18 16:04:19;;;;;;;;;;;;;;;;;;5095637;28;19931;-65
2021/06/18 16:06:46;;;;;;;;;;;;;;;;;;5095735;28;19967;-66
2021/06/18 16:09:13;;;;;;;;;;;;;;;;;;5095067;28;19924;-65
2021/06/18 16:11:40;;;;;;;;;;;;;;;;;;5095212;28;20403;-65
2021/06/18 16:14:07;;;;;;;;;;;;;;;;;;5095129;28;19946;-65
2021/06/18 16:16:34;;;;;;;;;;;;;;;;;;5095283;28;19928;-65
2021/06/18 16:19:01;;;;;;;;;;;;;;;;;;5095092;28;20022;-64
2021/06/18 16:21:28;;;;;;;;;;;;;;;;;;5094781;28;19931;-65
2021/06/18 16:23:55;;;;;;;;;;;;;;;;;;5095121;28;19924;-64
2021/06/18 16:26:25;;;;;;;;;;;;;;;;;;5094725;28;19924;-65
2021/06/18 16:28:52;;;;;;;;;;;;;;;;;;5094860;28;20229;-64
2021/06/18 16:31:19;;;;;;;;;;;;;;;;;;5094673;28;19928;-64
2021/06/18 16:33:46;;;;;;;;;;;;;;;;;;5094981;28;19924;-64
2021/06/18 16:36:13;;;;;;;;;;;;;;;;;;5094513;28;19924;-64
2021/06/18 16:38:40;;;;;;;;;;;;;;;;;;5094643;28;20399;-66
2021/06/18 16:41:08;;;;;;;;;;;;;;;;;;5094398;28;20027;-64
2021/06/18 16:43:35;;;;;;;;;;;;;;;;;;5094520;28;19931;-64